createdAt,value
2019-04-23T00:01:08.194Z,998.88
2019-04-23T00:01:59.763Z,998.89
2019-04-23T00:02:58.469Z,998.87
2019-04-23T00:03:54.844Z,998.87
2019-04-23T00:04:52.803Z,998.86
2019-04-23T00:06:02.374Z,998.83
2019-04-23T00:10:09.613Z,998.77
2019-04-23T00:10:59.222Z,998.68
2019-04-23T00:11:51.825Z,998.68
2019-04-23T00:12:52.785Z,998.66
2019-04-23T00:13:57.756Z,998.68
2019-04-23T00:15:05.159Z,998.63
2019-04-23T00:16:05.005Z,998.64
2019-04-23T00:16:57.821Z,998.62
2019-04-23T00:18:00.836Z,998.67
2019-04-23T00:21:34.609Z,998.77
2019-04-23T00:22:36.777Z,998.76
2019-04-23T00:23:38.486Z,998.70
2019-04-23T00:24:53.844Z,998.67
2019-04-23T00:29:20.924Z,998.62
2019-04-23T00:32:58.379Z,998.59
2019-04-23T00:40:11.379Z,998.46
2019-04-23T00:41:30.888Z,998.47
2019-04-23T00:42:28.321Z,998.48
2019-04-23T00:43:17.076Z,998.46
2019-04-23T00:44:21.344Z,998.54
2019-04-23T00:45:16.617Z,998.57
2019-04-23T00:46:18.722Z,998.57
2019-04-23T00:47:19.274Z,998.58
2019-04-23T00:50:05.936Z,998.60
2019-04-23T00:50:54.314Z,998.57
2019-04-23T00:51:58.746Z,998.59
2019-04-23T00:53:17.483Z,998.55
2019-04-23T00:53:56.727Z,998.49
2019-04-23T00:55:07.533Z,998.46
2019-04-23T00:56:06.638Z,998.42
2019-04-23T00:57:00.833Z,998.49
2019-04-23T00:57:59.932Z,998.46
2019-04-23T01:01:38.881Z,998.47
2019-04-23T01:02:37.436Z,998.46
2019-04-23T01:03:25.211Z,998.48
2019-04-23T01:04:36.443Z,998.45
2019-04-23T01:05:29.471Z,998.45
2019-04-23T01:06:32.475Z,998.48
2019-04-23T01:07:33.388Z,998.45
2019-04-23T01:08:29.706Z,998.45
2019-04-23T01:09:29.625Z,998.45
2019-04-23T01:10:36.748Z,998.43
2019-04-23T01:11:34.186Z,998.42
2019-04-23T01:12:38.393Z,998.39
2019-04-23T01:13:39.361Z,998.39
2019-04-23T01:14:26.245Z,998.42
2019-04-23T01:15:32.840Z,998.39
2019-04-23T01:16:31.734Z,998.36
2019-04-23T01:17:41.042Z,998.40
2019-04-23T01:18:45.285Z,998.37
2019-04-23T01:20:28.966Z,998.38
2019-04-23T01:21:09.693Z,998.36
2019-04-23T01:22:10.505Z,998.37
2019-04-23T01:23:09.606Z,998.37
2019-04-23T01:24:15.355Z,998.34
2019-04-23T01:25:20.018Z,998.36
2019-04-23T01:26:32.880Z,998.37
2019-04-23T01:27:51.362Z,998.38
2019-04-23T01:28:39.939Z,998.37
2019-04-23T01:29:39.120Z,998.31
2019-04-23T01:30:59.710Z,998.29
2019-04-23T01:31:33.252Z,998.30
2019-04-23T01:32:52.021Z,998.25
2019-04-23T01:33:38.997Z,998.27
2019-04-23T01:34:41.559Z,998.27
2019-04-23T01:35:33.153Z,998.30
2019-04-23T01:36:32.942Z,998.29
2019-04-23T01:37:36.730Z,998.23
2019-04-23T01:38:41.712Z,998.24
2019-04-23T01:41:26.764Z,998.23
2019-04-23T01:42:29.540Z,998.24
2019-04-23T01:43:38.097Z,998.21
2019-04-23T01:44:25.391Z,998.22
2019-04-23T01:46:22.030Z,998.21
2019-04-23T01:47:24.410Z,998.16
2019-04-23T01:48:23.674Z,998.22
2019-04-23T01:49:29.341Z,998.20
2019-04-23T01:54:55.403Z,998.19
2019-04-23T01:55:52.680Z,998.18
2019-04-23T01:56:47.226Z,998.18
2019-04-23T01:57:56.371Z,998.16
2019-04-23T01:58:57.617Z,998.13
2019-04-23T01:59:58.455Z,998.10
2019-04-23T02:00:47.506Z,998.13
2019-04-23T02:01:51.969Z,998.09
2019-04-23T02:04:56.950Z,998.03
2019-04-23T02:05:48.383Z,998.05
2019-04-23T02:06:55.987Z,998.04
2019-04-23T02:07:54.605Z,998.04
2019-04-23T02:08:52.210Z,998.03
2019-04-23T02:09:55.570Z,997.98
2019-04-23T02:10:58.798Z,997.97
2019-04-23T02:11:53.344Z,997.98
2019-04-23T02:12:55.655Z,997.97
2019-04-23T02:13:51.582Z,997.98
2019-04-23T02:14:49.939Z,997.97
2019-04-23T02:16:05.180Z,997.97
2019-04-23T02:17:08.067Z,997.94
2019-04-23T02:18:56.817Z,997.96
2019-04-23T02:19:55.723Z,997.95
2019-04-23T02:20:47.869Z,997.91
2019-04-23T02:25:13.381Z,998.02
2019-04-23T02:26:10.646Z,997.97
2019-04-23T02:27:13.763Z,997.96
2019-04-23T02:30:37.556Z,998.02
2019-04-23T02:31:25.297Z,997.98
2019-04-23T02:34:21.311Z,997.93
2019-04-23T02:35:17.272Z,997.91
2019-04-23T02:36:23.886Z,997.86
2019-04-23T02:37:17.853Z,997.93
2019-04-23T02:39:03.559Z,997.88
2019-04-23T02:40:20.192Z,997.86
2019-04-23T02:41:20.214Z,997.85
2019-04-23T02:43:15.121Z,997.83
2019-04-23T02:45:09.658Z,997.78
2019-04-23T02:46:33.963Z,997.77
2019-04-23T02:47:19.303Z,997.76
2019-04-23T02:51:10.797Z,997.66
2019-04-23T02:52:18.275Z,997.70
2019-04-23T02:53:27.266Z,997.66
2019-04-23T02:56:25.237Z,997.64
2019-04-23T02:57:13.963Z,997.60
2019-04-23T02:58:19.160Z,997.60
2019-04-23T02:59:21.432Z,997.61
2019-04-23T03:00:18.543Z,997.59
2019-04-23T03:01:25.284Z,997.60
2019-04-23T03:02:26.264Z,997.57
2019-04-23T03:03:13.680Z,997.55
2019-04-23T03:04:21.967Z,997.53
2019-04-23T03:05:18.820Z,997.49
2019-04-23T03:07:22.436Z,997.44
2019-04-23T03:09:17.112Z,997.48
2019-04-23T03:11:20.029Z,997.45
2019-04-23T03:12:18.360Z,997.41
2019-04-23T03:14:18.751Z,997.43
2019-04-23T03:15:21.758Z,997.38
2019-04-23T03:18:11.929Z,997.36
2019-04-23T03:19:58.878Z,997.35
2019-04-23T03:21:19.634Z,997.33
2019-04-23T03:24:02.247Z,997.28
2019-04-23T03:24:55.913Z,997.27
2019-04-23T03:27:09.810Z,997.24
2019-04-23T03:32:37.390Z,997.20
2019-04-23T03:37:58.166Z,997.23
2019-04-23T03:39:56.729Z,997.25
2019-04-23T03:41:02.523Z,997.25
2019-04-23T03:42:53.947Z,997.21
2019-04-23T03:46:00.829Z,997.26
2019-04-23T03:46:46.749Z,997.27
2019-04-23T03:48:00.797Z,997.24
2019-04-23T03:48:57.390Z,997.24
2019-04-23T03:49:55.997Z,997.25
2019-04-23T03:51:52.241Z,997.22
2019-04-23T03:54:46.190Z,997.23
2019-04-23T03:55:54.642Z,997.18
2019-04-23T03:58:08.108Z,997.20
2019-04-23T03:58:48.717Z,997.19
2019-04-23T04:03:03.755Z,997.17
2019-04-23T04:06:02.970Z,997.18
2019-04-23T04:07:05.439Z,997.18
2019-04-23T04:08:00.682Z,997.23
2019-04-23T04:08:58.313Z,997.25
2019-04-23T04:09:47.848Z,997.24
2019-04-23T04:10:52.420Z,997.24
2019-04-23T04:11:33.526Z,997.23
2019-04-23T04:13:50.493Z,997.20
2019-04-23T04:15:05.130Z,997.17
2019-04-23T04:15:58.907Z,997.17
2019-04-23T04:19:09.273Z,997.21
2019-04-23T04:19:47.785Z,997.21
2019-04-23T04:20:53.715Z,997.22
2019-04-23T04:21:49.940Z,997.22
2019-04-23T04:22:59.221Z,997.21
2019-04-23T04:23:51.233Z,997.18
2019-04-23T04:25:49.914Z,997.22
2019-04-23T04:28:51.017Z,997.20
2019-04-23T04:32:00.359Z,997.13
2019-04-23T04:37:18.487Z,997.15
2019-04-23T04:40:55.171Z,997.13
2019-04-23T04:42:06.136Z,997.12
2019-04-23T04:44:50.060Z,997.06
2019-04-23T04:47:45.630Z,997.08
2019-04-23T04:48:58.864Z,997.10
2019-04-23T04:49:55.693Z,997.08
2019-04-23T04:51:00.231Z,997.02
2019-04-23T04:54:39.337Z,997.04
2019-04-23T04:56:49.835Z,996.98
2019-04-23T05:00:06.815Z,996.98
2019-04-23T05:02:01.198Z,996.93
2019-04-23T05:03:32.825Z,996.91
2019-04-23T05:07:48.071Z,996.88
2019-04-23T05:09:47.701Z,996.84
2019-04-23T05:10:55.715Z,996.85
2019-04-23T05:11:52.330Z,996.81
2019-04-23T05:12:52.907Z,996.80
2019-04-23T05:15:44.301Z,996.77
2019-04-23T05:17:55.358Z,996.76
2019-04-23T05:18:58.035Z,996.77
2019-04-23T05:22:49.325Z,996.77
2019-04-23T05:23:42.943Z,996.77
2019-04-23T05:24:41.057Z,996.73
2019-04-23T05:25:44.950Z,996.75
2019-04-23T05:26:33.334Z,996.72
2019-04-23T05:27:55.257Z,996.75
2019-04-23T05:28:51.188Z,996.80
2019-04-23T05:29:48.595Z,996.77
2019-04-23T05:30:46.368Z,996.77
2019-04-23T05:31:32.841Z,996.82
2019-04-23T05:32:43.182Z,996.80
2019-04-23T05:33:49.286Z,996.77
2019-04-23T05:34:40.098Z,996.78
2019-04-23T05:37:59.408Z,996.81
2019-04-23T05:38:51.105Z,996.80
2019-04-23T05:39:38.103Z,996.80
2019-04-23T05:40:45.283Z,996.78
2019-04-23T05:41:42.060Z,996.77
2019-04-23T05:44:43.178Z,996.83
2019-04-23T05:45:41.330Z,996.81
2019-04-23T05:46:49.054Z,996.84
2019-04-23T05:47:48.218Z,996.87
2019-04-23T05:48:37.711Z,996.78
2019-04-23T05:49:47.542Z,996.79
2019-04-23T05:50:53.929Z,996.74
2019-04-23T05:51:52.652Z,996.77
2019-04-23T05:52:45.872Z,996.78
2019-04-23T05:55:46.056Z,996.76
2019-04-23T05:56:38.831Z,996.78
2019-04-23T05:57:40.375Z,996.75
2019-04-23T05:58:48.930Z,996.73
2019-04-23T05:59:48.516Z,996.73
2019-04-23T06:00:50.934Z,996.74
2019-04-23T06:02:51.733Z,996.72
2019-04-23T06:03:42.068Z,996.66
2019-04-23T06:04:43.065Z,996.69
2019-04-23T06:05:49.563Z,996.68
2019-04-23T06:07:11.350Z,996.68
2019-04-23T06:07:42.698Z,996.57
2019-04-23T06:08:51.637Z,996.62
2019-04-23T06:09:41.468Z,996.62
2019-04-23T06:10:40.633Z,996.65
2019-04-23T06:12:42.268Z,996.61
2019-04-23T06:13:47.707Z,996.57
2019-04-23T06:15:49.234Z,996.58
2019-04-23T06:16:41.622Z,996.59
2019-04-23T06:17:44.479Z,996.55
2019-04-23T06:18:51.623Z,996.57
2019-04-23T06:19:33.114Z,996.57
2019-04-23T06:20:51.760Z,996.54
2019-04-23T06:22:42.375Z,996.56
2019-04-23T06:23:46.456Z,996.50
2019-04-23T06:24:41.148Z,996.45
2019-04-23T06:27:43.210Z,996.48
2019-04-23T06:28:41.765Z,996.41
2019-04-23T06:29:48.066Z,996.46
2019-04-23T06:32:41.403Z,996.39
2019-04-23T06:33:44.959Z,996.35
2019-04-23T06:34:42.314Z,996.32
2019-04-23T06:35:45.459Z,996.33
2019-04-23T06:36:38.462Z,996.30
2019-04-23T06:38:09.016Z,996.31
2019-04-23T06:39:44.511Z,996.29
2019-04-23T06:40:43.568Z,996.31
2019-04-23T06:41:44.957Z,996.26
2019-04-23T06:42:41.018Z,996.26
2019-04-23T06:43:46.618Z,996.25
2019-04-23T06:44:37.663Z,996.28
2019-04-23T06:45:40.297Z,996.29
2019-04-23T06:46:45.926Z,996.25
2019-04-23T06:47:40.979Z,996.29
2019-04-23T06:48:40.712Z,996.26
2019-04-23T06:50:45.570Z,996.28
2019-04-23T06:51:46.602Z,996.21
2019-04-23T06:52:31.796Z,996.25
2019-04-23T06:53:36.339Z,996.22
2019-04-23T06:54:45.952Z,996.24
2019-04-23T06:55:42.287Z,996.22
2019-04-23T06:56:43.256Z,996.23
2019-04-23T06:57:33.331Z,996.18
2019-04-23T06:58:37.350Z,996.23
2019-04-23T06:59:39.578Z,996.18
2019-04-23T07:00:42.776Z,996.19
2019-04-23T07:01:51.043Z,996.16
2019-04-23T07:02:37.567Z,996.18
2019-04-23T07:03:45.205Z,996.11
2019-04-23T07:04:43.490Z,996.20
2019-04-23T07:05:40.957Z,996.13
2019-04-23T07:09:04.416Z,996.19
2019-04-23T07:09:35.722Z,996.14
2019-04-23T07:10:42.296Z,996.08
2019-04-23T07:11:51.274Z,996.10
2019-04-23T07:12:41.410Z,996.06
2019-04-23T07:13:49.152Z,996.03
2019-04-23T07:14:46.284Z,996.05
2019-04-23T07:16:38.534Z,995.98
2019-04-23T07:17:36.157Z,995.97
2019-04-23T07:18:38.023Z,995.99
2019-04-23T07:20:40.331Z,995.97
2019-04-23T07:21:35.315Z,995.94
2019-04-23T07:22:41.379Z,995.98
2019-04-23T07:23:45.661Z,995.94
2019-04-23T07:24:45.325Z,995.91
2019-04-23T07:25:41.764Z,995.94
2019-04-23T07:27:37.078Z,995.92
2019-04-23T07:28:48.560Z,995.91
2019-04-23T07:29:50.082Z,995.91
2019-04-23T07:30:38.446Z,995.85
2019-04-23T07:31:53.991Z,995.83
2019-04-23T07:32:38.918Z,995.86
2019-04-23T07:33:45.931Z,995.83
2019-04-23T07:34:46.937Z,995.82
2019-04-23T07:35:41.686Z,995.78
2019-04-23T07:37:40.291Z,995.84
2019-04-23T07:38:47.334Z,995.77
2019-04-23T07:40:12.991Z,995.77
2019-04-23T07:40:43.035Z,995.80
2019-04-23T07:42:58.294Z,995.77
2019-04-23T07:43:39.780Z,995.80
2019-04-23T07:44:42.467Z,995.80
2019-04-23T07:45:45.409Z,995.76
2019-04-23T07:46:48.176Z,995.76
2019-04-23T07:47:37.970Z,995.83
2019-04-23T07:48:30.492Z,995.67
2019-04-23T07:49:41.459Z,995.76
2019-04-23T07:51:35.672Z,995.72
2019-04-23T07:52:41.493Z,995.77
2019-04-23T07:53:37.911Z,995.70
2019-04-23T07:56:41.908Z,995.62
2019-04-23T07:57:40.121Z,995.68
2019-04-23T07:58:33.274Z,995.65
2019-04-23T07:59:44.961Z,995.71
2019-04-23T08:00:47.179Z,995.70
2019-04-23T08:01:34.861Z,995.64
2019-04-23T08:02:38.405Z,995.65
2019-04-23T08:03:36.584Z,995.68
2019-04-23T08:04:46.187Z,995.65
2019-04-23T08:05:49.524Z,995.68
2019-04-23T08:06:37.594Z,995.67
2019-04-23T08:08:37.999Z,995.69
2019-04-23T08:09:43.653Z,995.70
2019-04-23T08:10:46.568Z,995.69
2019-04-23T08:12:40.205Z,995.61
2019-04-23T08:14:44.217Z,995.61
2019-04-23T08:16:36.702Z,995.57
2019-04-23T08:17:34.594Z,995.62
2019-04-23T08:18:46.333Z,995.55
2019-04-23T08:20:42.014Z,995.60
2019-04-23T08:21:32.092Z,995.56
2019-04-23T08:22:39.394Z,995.54
2019-04-23T08:23:47.302Z,995.54
2019-04-23T08:24:45.298Z,995.56
2019-04-23T08:25:47.258Z,995.61
2019-04-23T08:26:42.499Z,995.54
2019-04-23T08:27:35.242Z,995.58
2019-04-23T08:28:52.093Z,995.56
2019-04-23T08:29:54.431Z,995.52
2019-04-23T08:30:42.254Z,995.53
2019-04-23T08:32:27.857Z,995.51
2019-04-23T08:33:46.216Z,995.44
2019-04-23T08:34:44.889Z,995.47
2019-04-23T08:36:40.747Z,995.39
2019-04-23T08:38:01.478Z,995.40
2019-04-23T08:38:35.943Z,995.40
2019-04-23T08:39:38.619Z,995.38
2019-04-23T08:40:49.180Z,995.38
2019-04-23T08:41:46.154Z,995.35
2019-04-23T08:43:51.754Z,995.30
2019-04-23T08:45:31.317Z,995.33
2019-04-23T08:46:43.399Z,995.28
2019-04-23T08:47:33.126Z,995.31
2019-04-23T08:49:43.615Z,995.29
2019-04-23T08:50:40.331Z,995.26
2019-04-23T08:51:44.082Z,995.23
2019-04-23T08:52:38.301Z,995.16
2019-04-23T08:54:52.007Z,995.17
2019-04-23T08:55:38.423Z,995.16
2019-04-23T08:56:46.128Z,995.18
2019-04-23T08:57:32.155Z,995.15
2019-04-23T08:58:47.462Z,995.17
2019-04-23T08:59:48.650Z,995.14
2019-04-23T09:00:42.451Z,995.14
2019-04-23T09:01:47.797Z,995.09
2019-04-23T09:02:41.043Z,995.21
2019-04-23T09:03:45.806Z,995.17
2019-04-23T09:04:40.054Z,995.22
2019-04-23T09:05:38.184Z,995.17
2019-04-23T09:06:35.363Z,995.14
2019-04-23T09:07:37.552Z,995.17
2019-04-23T09:09:45.436Z,995.03
2019-04-23T09:10:46.494Z,995.00
2019-04-23T09:11:45.785Z,995.02
2019-04-23T09:12:44.311Z,995.02
2019-04-23T09:14:42.121Z,994.96
2019-04-23T09:15:48.283Z,994.98
2019-04-23T09:16:36.161Z,994.96
2019-04-23T09:17:45.576Z,994.95
2019-04-23T09:18:33.879Z,994.95
2019-04-23T09:19:46.017Z,994.87
2019-04-23T09:20:31.356Z,994.94
2019-04-23T09:21:33.006Z,994.95
2019-04-23T09:23:40.881Z,995.01
2019-04-23T09:24:43.134Z,994.94
2019-04-23T09:25:40.685Z,994.92
2019-04-23T09:26:33.019Z,994.88
2019-04-23T09:27:41.912Z,994.91
2019-04-23T09:28:45.403Z,994.93
2019-04-23T09:29:49.223Z,994.96
2019-04-23T09:30:32.195Z,994.95
2019-04-23T09:32:00.580Z,994.95
2019-04-23T09:33:52.219Z,994.93
2019-04-23T09:34:38.724Z,994.94
2019-04-23T09:35:38.964Z,994.89
2019-04-23T09:36:40.535Z,994.86
2019-04-23T09:37:40.390Z,994.91
2019-04-23T09:38:32.998Z,994.83
2019-04-23T09:40:41.694Z,994.87
2019-04-23T09:41:42.359Z,994.87
2019-04-23T09:42:38.426Z,994.85
2019-04-23T09:43:33.145Z,994.83
2019-04-23T09:44:56.616Z,994.84
2019-04-23T09:46:55.756Z,994.87
2019-04-23T09:47:38.099Z,994.85
2019-04-23T09:48:41.999Z,994.83
2019-04-23T09:49:39.545Z,994.90
2019-04-23T09:50:38.420Z,994.89
2019-04-23T09:51:35.820Z,994.94
2019-04-23T09:52:43.167Z,994.90
2019-04-23T09:53:33.911Z,994.91
2019-04-23T09:54:39.911Z,994.89
2019-04-23T09:56:41.430Z,994.87
2019-04-23T09:57:36.073Z,994.92
2019-04-23T09:58:30.033Z,994.91
2019-04-23T09:59:39.460Z,994.96
2019-04-23T10:00:36.398Z,994.80
2019-04-23T10:02:27.299Z,994.85
2019-04-23T10:03:21.163Z,994.81
2019-04-23T10:04:23.776Z,994.86
2019-04-23T10:05:22.179Z,994.72
2019-04-23T10:06:14.877Z,994.75
2019-04-23T10:07:23.853Z,994.77
2019-04-23T10:08:16.184Z,994.73
2019-04-23T10:09:10.133Z,994.71
2019-04-23T10:10:08.137Z,994.72
2019-04-23T10:11:09.290Z,994.67
2019-04-23T10:12:09.412Z,994.65
2019-04-23T10:13:08.263Z,994.60
2019-04-23T10:14:08.304Z,994.64
2019-04-23T10:15:13.777Z,994.56
2019-04-23T10:16:11.700Z,994.50
2019-04-23T10:17:08.433Z,994.54
2019-04-23T10:18:07.921Z,994.54
2019-04-23T10:19:08.000Z,994.49
2019-04-23T10:20:08.696Z,994.52
2019-04-23T10:21:07.832Z,994.47
2019-04-23T10:22:09.082Z,994.50
2019-04-23T10:23:08.357Z,994.49
2019-04-23T10:24:07.599Z,994.50
2019-04-23T10:25:08.752Z,994.43
2019-04-23T10:26:07.906Z,994.42
2019-04-23T10:27:08.384Z,994.43
2019-04-23T10:28:10.895Z,994.37
2019-04-23T10:29:07.753Z,994.44
2019-04-23T10:30:08.149Z,994.43
2019-04-23T10:31:08.925Z,994.39
2019-04-23T10:32:07.571Z,994.42
2019-04-23T10:33:07.535Z,994.38
2019-04-23T10:34:08.250Z,994.36
2019-04-23T10:35:20.430Z,994.38
2019-04-23T10:36:12.858Z,994.34
2019-04-23T10:37:07.350Z,994.35
2019-04-23T10:38:10.764Z,994.35
2019-04-23T10:39:11.797Z,994.32
2019-04-23T10:40:12.744Z,994.33
2019-04-23T10:41:07.081Z,994.32
2019-04-23T10:42:07.925Z,994.30
2019-04-23T10:43:07.489Z,994.25
2019-04-23T10:44:07.170Z,994.29
2019-04-23T10:45:20.742Z,994.24
2019-04-23T10:46:27.914Z,994.22
2019-04-23T10:47:32.347Z,994.23
2019-04-23T10:48:49.593Z,994.22
2019-04-23T10:50:43.123Z,994.21
2019-04-23T10:52:30.850Z,994.21
2019-04-23T10:53:37.991Z,994.17
2019-04-23T10:55:44.728Z,994.23
2019-04-23T10:56:42.942Z,994.21
2019-04-23T10:57:44.345Z,994.21
2019-04-23T10:58:36.803Z,994.20
2019-04-23T10:59:35.719Z,994.25
2019-04-23T11:00:35.842Z,994.25
2019-04-23T11:01:36.572Z,994.22
2019-04-23T11:05:47.403Z,994.17
2019-04-23T11:06:41.368Z,994.24
2019-04-23T11:08:51.851Z,994.19
2019-04-23T11:09:52.364Z,994.14
2019-04-23T11:10:33.192Z,994.14
2019-04-23T11:11:40.746Z,994.12
2019-04-23T11:14:53.660Z,994.09
2019-04-23T11:16:49.272Z,994.10
2019-04-23T11:17:38.720Z,994.16
2019-04-23T11:18:46.859Z,994.11
2019-04-23T11:19:45.836Z,994.15
2019-04-23T11:20:35.421Z,994.04
2019-04-23T11:21:33.906Z,994.09
2019-04-23T11:23:34.341Z,994.09
2019-04-23T11:24:48.858Z,994.01
2019-04-23T11:25:34.931Z,994.02
2019-04-23T11:26:37.067Z,993.97
2019-04-23T11:27:36.245Z,993.98
2019-04-23T11:28:33.245Z,994.06
2019-04-23T11:29:40.400Z,994.05
2019-04-23T11:31:48.773Z,994.09
2019-04-23T11:32:46.638Z,994.00
2019-04-23T11:33:39.232Z,994.02
2019-04-23T11:34:56.413Z,994.02
2019-04-23T11:37:54.678Z,994.01
2019-04-23T11:38:22.124Z,994.00
2019-04-23T11:38:49.113Z,994.01
2019-04-23T11:39:37.464Z,993.99
2019-04-23T11:40:33.188Z,994.07
2019-04-23T11:42:38.822Z,994.06
2019-04-23T11:43:33.029Z,994.11
2019-04-23T11:44:45.835Z,994.10
2019-04-23T11:45:40.410Z,994.08
2019-04-23T11:46:45.686Z,994.06
2019-04-23T11:48:14.206Z,994.04
2019-04-23T11:48:52.343Z,994.07
2019-04-23T11:51:46.083Z,994.07
2019-04-23T11:52:41.657Z,994.11
2019-04-23T11:53:51.059Z,994.17
2019-04-23T11:57:13.095Z,994.12
2019-04-23T11:57:49.082Z,994.13
2019-04-23T11:58:37.634Z,994.12
2019-04-23T11:59:35.881Z,994.07
2019-04-23T12:00:42.040Z,994.08
2019-04-23T12:02:38.553Z,994.09
2019-04-23T12:03:37.707Z,994.11
2019-04-23T12:04:40.621Z,994.12
2019-04-23T12:05:48.203Z,994.10
2019-04-23T12:06:30.164Z,994.13
2019-04-23T12:08:41.429Z,994.08
2019-04-23T12:09:40.110Z,994.08
2019-04-23T12:12:33.411Z,994.08
2019-04-23T12:13:35.399Z,994.10
2019-04-23T12:14:47.215Z,994.03
2019-04-23T12:15:37.552Z,994.06
2019-04-23T12:16:38.450Z,993.98
2019-04-23T12:17:31.702Z,994.01
2019-04-23T12:19:52.965Z,994.02
2019-04-23T12:20:33.438Z,993.98
2019-04-23T12:21:37.990Z,994.06
2019-04-23T12:22:38.927Z,993.97
2019-04-23T12:23:43.539Z,994.01
2019-04-23T12:24:58.202Z,993.99
2019-04-23T12:25:40.701Z,993.98
2019-04-23T12:26:42.501Z,993.99
2019-04-23T12:27:52.224Z,993.97
2019-04-23T12:28:40.271Z,993.98
2019-04-23T12:29:50.750Z,993.99
2019-04-23T12:31:47.107Z,993.98
2019-04-23T12:33:36.142Z,994.03
2019-04-23T12:34:36.311Z,994.04
2019-04-23T12:35:29.218Z,994.04
2019-04-23T12:36:36.958Z,994.07
2019-04-23T12:37:35.090Z,994.02
2019-04-23T12:38:33.294Z,994.02
2019-04-23T12:39:34.093Z,994.02
2019-04-23T12:41:41.705Z,994.06
2019-04-23T12:42:59.032Z,994.08
2019-04-23T12:43:47.028Z,994.04
2019-04-23T12:44:40.527Z,993.98
2019-04-23T12:45:33.993Z,993.95
2019-04-23T12:46:38.150Z,994.05
2019-04-23T12:47:43.604Z,994.04
2019-04-23T12:49:53.090Z,994.00
2019-04-23T12:50:45.536Z,993.95
2019-04-23T12:52:35.909Z,993.96
2019-04-23T12:54:38.460Z,993.86
2019-04-23T12:55:39.074Z,993.85
2019-04-23T12:56:43.747Z,993.82
2019-04-23T12:57:34.478Z,993.79
2019-04-23T12:58:50.892Z,993.75
2019-04-23T12:59:42.150Z,993.71
2019-04-23T13:00:33.950Z,993.77
2019-04-23T13:01:46.973Z,993.76
2019-04-23T13:02:39.792Z,993.77
2019-04-23T13:04:38.285Z,993.77
2019-04-23T13:05:31.350Z,993.74
2019-04-23T13:06:27.672Z,993.68
2019-04-23T13:07:43.555Z,993.70
2019-04-23T13:11:34.852Z,993.60
2019-04-23T13:12:44.895Z,993.62
2019-04-23T13:14:43.678Z,993.62
2019-04-23T13:15:29.325Z,993.56
2019-04-23T13:16:39.897Z,993.59
2019-04-23T13:17:46.901Z,993.55
2019-04-23T13:18:34.558Z,993.53
2019-04-23T13:19:36.901Z,993.54
2019-04-23T13:21:52.209Z,993.52
2019-04-23T13:24:34.568Z,993.57
2019-04-23T13:25:34.953Z,993.55
2019-04-23T13:26:26.299Z,993.54
2019-04-23T13:27:42.397Z,993.57
2019-04-23T13:28:33.732Z,993.55
2019-04-23T13:29:38.254Z,993.54
2019-04-23T13:31:30.013Z,993.54
2019-04-23T13:32:38.847Z,993.46
2019-04-23T13:34:41.475Z,993.46
2019-04-23T13:35:53.649Z,993.52
2019-04-23T13:36:41.763Z,993.42
2019-04-23T13:37:35.406Z,993.50
2019-04-23T13:39:35.326Z,993.39
2019-04-23T13:41:42.077Z,993.36
2019-04-23T13:42:40.940Z,993.37
2019-04-23T13:44:34.330Z,993.45
2019-04-23T13:45:59.243Z,993.39
2019-04-23T13:46:28.812Z,993.44
2019-04-23T13:47:46.854Z,993.42
2019-04-23T13:48:26.213Z,993.38
2019-04-23T13:49:37.749Z,993.37
2019-04-23T13:53:04.914Z,993.34
2019-04-23T13:54:17.296Z,993.34
2019-04-23T13:55:26.670Z,993.28
2019-04-23T13:56:53.812Z,993.23
2019-04-23T13:58:32.867Z,993.29
2019-04-23T13:59:39.767Z,993.28
2019-04-23T14:01:40.038Z,993.25
2019-04-23T14:02:40.502Z,993.22
2019-04-23T14:03:35.694Z,993.28
2019-04-23T14:05:38.656Z,993.19
2019-04-23T14:07:38.469Z,993.14
2019-04-23T14:08:50.459Z,993.16
2019-04-23T14:10:44.885Z,993.11
2019-04-23T14:11:29.495Z,993.11
2019-04-23T14:12:31.966Z,993.07
2019-04-23T14:14:43.711Z,993.05
2019-04-23T14:15:42.548Z,992.97
2019-04-23T14:16:34.374Z,992.98
2019-04-23T14:18:02.781Z,992.95
2019-04-23T14:19:28.011Z,992.90
2019-04-23T14:21:34.646Z,992.91
2019-04-23T14:22:53.935Z,992.84
2019-04-23T14:24:38.064Z,992.88
2019-04-23T14:25:34.530Z,992.84
2019-04-23T14:28:37.721Z,992.74
2019-04-23T14:29:41.269Z,992.73
2019-04-23T14:30:37.874Z,992.73
2019-04-23T14:31:31.207Z,992.79
2019-04-23T14:32:29.168Z,992.77
2019-04-23T14:33:54.879Z,992.81
2019-04-23T14:34:37.679Z,992.80
2019-04-23T14:37:33.066Z,992.79
2019-04-23T14:38:40.065Z,992.83
2019-04-23T14:40:40.043Z,992.78
2019-04-23T14:42:07.143Z,992.84
2019-04-23T14:43:31.448Z,992.77
2019-04-23T14:44:25.274Z,992.75
2019-04-23T14:46:45.542Z,992.74
2019-04-23T14:47:50.872Z,992.69
2019-04-23T14:48:29.919Z,992.71
2019-04-23T14:50:12.526Z,992.73
2019-04-23T14:55:05.326Z,992.74
2019-04-23T14:56:41.956Z,992.78
2019-04-23T14:57:45.343Z,992.76
2019-04-23T14:58:50.785Z,992.83
2019-04-23T14:59:19.847Z,992.82
2019-04-23T15:00:37.651Z,992.87
2019-04-23T15:02:36.704Z,992.90
2019-04-23T15:03:40.174Z,992.86
2019-04-23T15:04:36.093Z,992.81
2019-04-23T15:05:36.215Z,992.81
2019-04-23T15:06:37.941Z,992.89
2019-04-23T15:07:34.569Z,992.95
2019-04-23T15:08:39.930Z,992.97
2019-04-23T15:09:36.862Z,992.94
2019-04-23T15:10:32.205Z,992.96
2019-04-23T15:12:30.424Z,992.88
2019-04-23T15:13:28.306Z,992.83
2019-04-23T15:14:33.878Z,992.80
2019-04-23T15:16:30.806Z,992.80
2019-04-23T15:17:28.545Z,992.77
2019-04-23T15:18:39.397Z,992.72
2019-04-23T15:19:36.830Z,992.73
2019-04-23T15:20:30.663Z,992.69
2019-04-23T15:22:30.353Z,992.67
2019-04-23T15:23:41.617Z,992.66
2019-04-23T15:25:38.114Z,992.70
2019-04-23T15:27:48.517Z,992.73
2019-04-23T15:28:03.504Z,992.62
2019-04-23T15:28:09.038Z,992.62
2019-04-23T15:29:16.895Z,992.65
2019-04-23T15:30:20.817Z,992.64
2019-04-23T15:31:33.599Z,992.64
2019-04-23T15:32:34.636Z,992.69
2019-04-23T15:33:37.090Z,992.69
2019-04-23T15:34:23.167Z,992.70
2019-04-23T15:36:47.010Z,992.76
2019-04-23T15:37:42.994Z,992.77
2019-04-23T15:38:45.455Z,992.82
2019-04-23T15:39:32.722Z,992.84
2019-04-23T15:40:25.174Z,992.93
2019-04-23T15:42:50.774Z,992.97
2019-04-23T15:43:30.444Z,992.94
2019-04-23T15:44:23.145Z,992.95
2019-04-23T15:45:28.481Z,992.93
2019-04-23T15:46:32.546Z,992.93
2019-04-23T15:47:32.560Z,992.92
2019-04-23T15:48:33.622Z,992.87
2019-04-23T15:49:28.865Z,992.90
2019-04-23T15:51:35.510Z,992.89
2019-04-23T15:53:24.087Z,992.92
2019-04-23T15:54:34.936Z,992.79
2019-04-23T15:55:29.521Z,992.72
2019-04-23T15:57:49.648Z,992.65
2019-04-23T15:58:37.261Z,992.67
2019-04-23T16:00:26.982Z,992.73
2019-04-23T16:01:34.554Z,992.71
2019-04-23T16:02:01.350Z,992.68
2019-04-23T16:03:01.226Z,992.62
2019-04-23T16:04:01.478Z,992.67
2019-04-23T16:05:01.188Z,992.67
2019-04-23T16:06:02.527Z,992.61
2019-04-23T16:07:02.422Z,992.60
2019-04-23T16:08:18.200Z,992.55
2019-04-23T16:09:33.584Z,992.54
2019-04-23T16:11:45.478Z,992.39
2019-04-23T16:12:27.769Z,992.37
2019-04-23T16:13:29.092Z,992.33
2019-04-23T16:15:27.062Z,992.35
2019-04-23T16:17:30.495Z,992.37
2019-04-23T16:18:35.131Z,992.38
2019-04-23T16:19:33.877Z,992.37
2019-04-23T16:20:54.410Z,992.38
2019-04-23T16:21:35.826Z,992.38
2019-04-23T16:22:25.020Z,992.33
2019-04-23T16:23:28.026Z,992.35
2019-04-23T16:24:20.496Z,992.35
2019-04-23T16:25:20.595Z,992.33
2019-04-23T16:26:32.394Z,992.31
2019-04-23T16:27:19.618Z,992.31
2019-04-23T16:28:51.784Z,992.27
2019-04-23T16:29:37.641Z,992.26
2019-04-23T16:30:24.614Z,992.21
2019-04-23T16:31:34.263Z,992.24